createdAt,value
2018-09-02T00:10:41.269Z,3.31
2018-09-02T00:21:43.255Z,3.31
2018-09-02T00:32:45.289Z,3.31
2018-09-02T00:43:45.326Z,3.30
2018-09-02T00:54:46.274Z,3.30
2018-09-02T01:05:48.693Z,3.30
2018-09-02T01:16:51.203Z,3.30
2018-09-02T01:27:53.391Z,3.30
2018-09-02T01:38:55.297Z,3.30
2018-09-02T01:49:57.042Z,3.30
2018-09-02T02:00:58.440Z,3.30
2018-09-02T02:12:01.640Z,3.29
2018-09-02T02:23:02.709Z,3.29
2018-09-02T02:34:04.893Z,3.29
2018-09-02T02:45:07.271Z,3.29
2018-09-02T02:56:09.787Z,3.29
2018-09-02T03:07:12.809Z,3.29
2018-09-02T03:18:15.054Z,3.28
2018-09-02T03:29:18.176Z,3.28
2018-09-02T03:40:20.966Z,3.28
2018-09-02T03:51:23.573Z,3.28
2018-09-02T04:02:25.442Z,3.28
2018-09-02T04:13:25.735Z,3.28
2018-09-02T04:24:27.724Z,3.27
2018-09-02T04:35:29.918Z,3.27
2018-09-02T04:46:32.525Z,3.27
2018-09-02T04:57:34.927Z,3.28
2018-09-02T05:08:38.123Z,3.28
2018-09-02T05:19:39.978Z,3.28
2018-09-02T05:30:42.724Z,3.28
2018-09-02T05:41:45.699Z,3.28
2018-09-02T05:52:48.481Z,3.29
2018-09-02T06:03:51.624Z,3.29
2018-09-02T06:14:54.017Z,3.29
2018-09-02T06:25:54.988Z,3.29
2018-09-02T06:36:56.811Z,3.29
2018-09-02T06:47:57.814Z,3.29
2018-09-02T06:59:00.525Z,3.29
2018-09-02T07:10:02.130Z,3.29
2018-09-02T07:21:04.645Z,3.29
2018-09-02T07:32:06.307Z,3.29
2018-09-02T07:43:08.115Z,3.32
2018-09-02T07:54:09.046Z,3.34
2018-09-02T08:05:08.701Z,3.34
2018-09-02T08:16:11.747Z,3.36
2018-09-02T08:27:11.525Z,3.38
2018-09-02T08:38:12.865Z,3.40
2018-09-02T08:49:15.803Z,3.39
2018-09-02T09:00:17.196Z,3.40
2018-09-02T09:11:20.618Z,3.40
2018-09-02T09:22:20.609Z,3.43
2018-09-02T09:33:22.051Z,3.40
2018-09-02T09:44:23.631Z,3.40
2018-09-02T09:55:25.893Z,3.41
2018-09-02T10:06:27.728Z,3.42
2018-09-02T10:17:27.035Z,3.43
2018-09-02T10:28:29.623Z,3.40
2018-09-02T10:39:32.411Z,3.40
2018-09-02T10:50:34.568Z,3.40
2018-09-02T11:01:35.556Z,3.44
2018-09-02T11:12:37.053Z,3.41
2018-09-02T11:23:39.614Z,3.40
2018-09-02T11:34:42.458Z,3.40
2018-09-02T11:45:44.724Z,3.40
2018-09-02T11:56:48.481Z,3.41
2018-09-02T12:07:51.226Z,3.41
2018-09-02T12:18:53.855Z,3.40
2018-09-02T12:29:56.131Z,3.41
2018-09-02T12:40:57.389Z,3.41
2018-09-02T12:51:56.606Z,3.40
2018-09-02T13:02:54.240Z,3.41
2018-09-02T13:13:55.861Z,3.40
2018-09-02T13:24:50.783Z,3.41
2018-09-02T13:35:52.549Z,3.40
2018-09-02T13:46:54.222Z,3.41
2018-09-02T13:57:56.008Z,3.40
2018-09-02T14:08:57.878Z,3.42
2018-09-02T14:19:56.648Z,3.41
2018-09-02T14:30:56.105Z,3.42
2018-09-02T14:41:56.065Z,3.42
2018-09-02T14:52:57.444Z,3.42
2018-09-02T15:03:58.509Z,3.43
2018-09-02T15:14:59.052Z,3.43
2018-09-02T15:26:01.082Z,3.43
2018-09-02T15:37:02.593Z,3.43
2018-09-02T15:48:04.148Z,3.42
2018-09-02T15:59:02.765Z,3.42
2018-09-02T16:10:02.640Z,3.41
2018-09-02T16:21:03.934Z,3.41
2018-09-02T16:32:02.405Z,3.41
2018-09-02T16:43:04.472Z,3.41
2018-09-02T16:54:05.474Z,3.40
2018-09-02T17:05:05.346Z,3.40
2018-09-02T17:16:05.453Z,3.40
2018-09-02T17:27:07.712Z,3.39
2018-09-02T17:38:08.987Z,3.39
2018-09-02T17:49:05.214Z,3.38
2018-09-02T18:00:05.325Z,3.38
2018-09-02T18:11:06.108Z,3.38
2018-09-02T18:22:06.048Z,3.37
2018-09-02T18:33:06.300Z,3.37
2018-09-02T18:44:07.781Z,3.37
2018-09-02T18:55:07.653Z,3.37
2018-09-02T19:06:07.846Z,3.36
2018-09-02T19:17:08.408Z,3.36
2018-09-02T19:28:07.360Z,3.36
2018-09-02T19:39:08.598Z,3.36
2018-09-02T19:50:05.716Z,3.36
2018-09-02T20:01:06.207Z,3.35
2018-09-02T20:12:07.334Z,3.34
2018-09-02T20:23:07.827Z,3.34
2018-09-02T20:34:07.915Z,3.34
2018-09-02T20:45:07.666Z,3.34
2018-09-02T20:56:07.322Z,3.34
2018-09-02T21:07:03.526Z,3.34
2018-09-02T21:17:59.117Z,3.34
2018-09-02T21:28:58.825Z,3.33
2018-09-02T21:39:58.641Z,3.33
2018-09-02T21:50:57.969Z,3.33
2018-09-02T22:01:59.044Z,3.33
2018-09-02T22:13:01.474Z,3.33
2018-09-02T22:24:02.240Z,3.32
2018-09-02T22:35:03.161Z,3.32
2018-09-02T22:46:05.530Z,3.32
2018-09-02T22:57:07.836Z,3.32
2018-09-02T23:08:08.016Z,3.32
2018-09-02T23:19:09.669Z,3.32
2018-09-02T23:30:12.685Z,3.32
2018-09-02T23:41:15.176Z,3.31
2018-09-02T23:52:18.083Z,3.31
